createdAt,value
2022-10-21T00:00:14.359Z,15.88
2022-10-21T00:01:17.052Z,16.00
2022-10-21T00:02:19.365Z,15.95
2022-10-21T00:03:22.966Z,16.06
2022-10-21T00:04:25.083Z,16.04
2022-10-21T00:05:27.305Z,15.96
2022-10-21T00:06:29.496Z,16.10
2022-10-21T00:07:31.724Z,16.14
2022-10-21T00:08:34.892Z,16.33
2022-10-21T00:09:37.058Z,16.24
2022-10-21T00:10:39.268Z,16.17
2022-10-21T00:11:41.430Z,16.17
2022-10-21T00:12:43.576Z,16.20
2022-10-21T00:13:45.902Z,16.24
2022-10-21T00:14:47.998Z,16.30
2022-10-21T00:16:10.448Z,16.64
2022-10-21T00:17:12.544Z,16.37
2022-10-21T00:18:14.664Z,16.30
2022-10-21T00:19:16.780Z,16.34
2022-10-21T00:20:19.184Z,16.32
2022-10-21T00:21:22.507Z,16.58
2022-10-21T00:22:24.631Z,16.37
2022-10-21T00:23:26.842Z,16.47
2022-10-21T00:24:28.970Z,16.45
2022-10-21T00:25:31.139Z,16.44
2022-10-21T00:26:36.203Z,16.43
2022-10-21T00:27:40.710Z,16.46
2022-10-21T00:28:43.316Z,16.59
2022-10-21T00:29:45.466Z,16.57
2022-10-21T00:30:47.664Z,16.61
2022-10-21T00:31:54.279Z,16.83
2022-10-21T00:33:00.678Z,16.54
2022-10-21T00:34:05.154Z,16.53
2022-10-21T00:35:07.849Z,16.63
2022-10-21T00:36:14.808Z,16.75
2022-10-21T00:37:17.567Z,16.57
2022-10-21T00:39:27.342Z,16.61
2022-10-21T00:40:29.922Z,16.59
2022-10-21T00:41:32.001Z,16.59
2022-10-21T00:42:42.136Z,16.80
2022-10-21T00:44:05.777Z,16.92
2022-10-21T00:45:07.855Z,16.57
2022-10-21T00:46:11.376Z,16.68
2022-10-21T00:47:18.705Z,16.72
2022-10-21T00:48:35.749Z,16.78
2022-10-21T00:49:51.004Z,16.78
2022-10-21T00:51:04.522Z,16.76
2022-10-21T00:52:11.386Z,16.66
2022-10-21T00:53:16.213Z,16.65
2022-10-21T00:54:21.536Z,16.65
2022-10-21T00:55:25.994Z,16.62
2022-10-21T00:56:31.111Z,16.58
2022-10-21T00:57:35.494Z,16.58
2022-10-21T00:58:38.041Z,16.38
2022-10-21T00:59:44.426Z,16.45
2022-10-21T01:00:46.838Z,16.27
2022-10-21T01:01:49.541Z,16.29
2022-10-21T01:02:51.770Z,16.28
2022-10-21T01:03:53.926Z,16.22
2022-10-21T01:04:59.400Z,16.43
2022-10-21T01:06:05.835Z,16.25
2022-10-21T01:07:08.114Z,16.00
2022-10-21T01:08:10.367Z,16.08
2022-10-21T01:09:13.885Z,16.19
2022-10-21T01:10:16.937Z,16.21
2022-10-21T01:11:21.378Z,16.17
2022-10-21T01:12:45.088Z,16.44
2022-10-21T01:13:54.532Z,16.06
2022-10-21T01:15:07.917Z,16.29
2022-10-21T01:16:27.018Z,16.37
2022-10-21T01:17:45.414Z,16.32
2022-10-21T01:19:27.879Z,16.41
2022-10-21T01:20:58.189Z,16.41
2022-10-21T01:22:17.937Z,16.34
2022-10-21T01:23:29.095Z,16.38
2022-10-21T01:24:46.166Z,15.98
2022-10-21T01:25:51.286Z,15.91
2022-10-21T01:27:16.008Z,16.34
2022-10-21T01:28:23.906Z,16.27
2022-10-21T01:29:38.278Z,16.31
2022-10-21T01:30:46.434Z,16.18
2022-10-21T01:32:14.831Z,16.29
2022-10-21T01:33:43.653Z,16.34
2022-10-21T01:34:51.822Z,16.12
2022-10-21T01:36:33.662Z,16.24
2022-10-21T01:38:03.355Z,16.26
2022-10-21T01:39:29.242Z,16.16
2022-10-21T01:40:39.277Z,16.11
2022-10-21T01:41:48.594Z,16.03
2022-10-21T01:42:58.528Z,16.16
2022-10-21T01:44:16.606Z,16.14
2022-10-21T01:45:46.756Z,16.17
2022-10-21T01:46:59.114Z,16.13
2022-10-21T01:48:24.491Z,16.19
2022-10-21T01:49:38.518Z,16.10
2022-10-21T01:50:56.272Z,16.07
2022-10-21T01:52:00.672Z,15.90
2022-10-21T01:53:09.930Z,16.02
2022-10-21T01:54:22.444Z,16.06
2022-10-21T01:55:30.724Z,15.91
2022-10-21T01:56:33.958Z,15.79
2022-10-21T01:57:41.778Z,15.97
2022-10-21T01:58:46.285Z,15.86
2022-10-21T01:59:50.808Z,15.74
2022-10-21T02:00:55.669Z,15.85
2022-10-21T02:02:00.894Z,15.91
2022-10-21T02:03:09.669Z,15.99
2022-10-21T02:04:15.179Z,15.84
2022-10-21T02:05:23.611Z,16.02
2022-10-21T02:06:26.786Z,15.65
2022-10-21T02:07:29.062Z,15.64
2022-10-21T02:08:31.444Z,15.71
2022-10-21T02:09:33.631Z,15.69
2022-10-21T02:10:40.931Z,15.97
2022-10-21T02:11:45.033Z,15.69
2022-10-21T02:12:51.689Z,15.88
2022-10-21T02:14:06.238Z,15.67
2022-10-21T02:15:11.407Z,15.76
2022-10-21T02:16:17.565Z,15.81
2022-10-21T02:17:22.687Z,15.85
2022-10-21T02:18:25.755Z,15.77
2022-10-21T02:19:28.399Z,15.66
2022-10-21T02:20:34.918Z,15.90
2022-10-21T02:21:37.301Z,15.64
2022-10-21T02:22:42.318Z,15.87
2022-10-21T02:24:09.723Z,16.05
2022-10-21T02:25:25.594Z,16.01
2022-10-21T02:26:28.498Z,15.77
2022-10-21T02:27:30.931Z,15.72
2022-10-21T02:28:33.681Z,15.72
2022-10-21T02:29:40.322Z,15.90
2022-10-21T02:30:56.688Z,15.98
2022-10-21T02:32:23.914Z,15.99
2022-10-21T02:33:50.953Z,15.99
2022-10-21T02:35:14.768Z,16.04
2022-10-21T02:36:53.014Z,16.15
2022-10-21T02:38:01.101Z,16.12
2022-10-21T02:39:11.765Z,16.08
2022-10-21T02:40:22.686Z,16.11
2022-10-21T02:41:27.035Z,16.25
2022-10-21T02:42:35.369Z,16.15
2022-10-21T02:43:47.991Z,16.24
2022-10-21T02:44:52.037Z,16.04
2022-10-21T02:46:05.976Z,16.15
2022-10-21T02:47:08.231Z,15.88
2022-10-21T02:48:10.451Z,15.87
2022-10-21T02:49:12.959Z,15.86
2022-10-21T02:50:15.717Z,15.77
2022-10-21T02:51:17.882Z,15.92
2022-10-21T02:52:20.031Z,16.00
2022-10-21T02:53:23.208Z,16.16
2022-10-21T02:54:25.314Z,16.00
2022-10-21T02:55:27.441Z,15.97
2022-10-21T02:57:36.919Z,16.03
2022-10-21T02:58:39.288Z,16.07
2022-10-21T02:59:41.457Z,16.06
2022-10-21T03:00:43.698Z,16.08
2022-10-21T03:01:45.875Z,16.14
2022-10-21T03:02:47.995Z,16.08
2022-10-21T03:03:50.091Z,16.15
2022-10-21T03:04:52.195Z,16.17
2022-10-21T03:05:54.295Z,16.22
2022-10-21T03:06:56.464Z,16.23
2022-10-21T03:07:58.597Z,16.25
2022-10-21T03:09:00.819Z,16.27
2022-10-21T03:10:03.205Z,16.27
2022-10-21T03:11:05.953Z,16.29
2022-10-21T03:12:08.111Z,16.28
2022-10-21T03:13:10.267Z,16.27
2022-10-21T03:14:12.457Z,16.23
2022-10-21T03:15:14.576Z,16.26
2022-10-21T03:16:16.725Z,16.29
2022-10-21T03:17:21.607Z,16.31
2022-10-21T03:18:26.579Z,16.37
2022-10-21T03:19:28.715Z,16.30
2022-10-21T03:20:31.054Z,16.25
2022-10-21T03:21:33.442Z,16.23
2022-10-21T03:22:35.589Z,16.25
2022-10-21T03:23:38.133Z,16.29
2022-10-21T03:24:40.241Z,16.07
2022-10-21T03:25:42.846Z,16.11
2022-10-21T03:26:44.915Z,16.18
2022-10-21T03:27:47.083Z,16.22
2022-10-21T03:28:49.219Z,16.22
2022-10-21T03:29:51.322Z,16.17
2022-10-21T03:30:54.387Z,16.29
2022-10-21T03:31:56.508Z,16.13
2022-10-21T03:32:58.627Z,16.14
2022-10-21T03:34:00.745Z,16.14
2022-10-21T03:35:03.579Z,16.22
2022-10-21T03:36:05.840Z,16.14
2022-10-21T03:37:07.977Z,16.17
2022-10-21T03:38:10.133Z,16.16
2022-10-21T03:39:12.830Z,16.22
2022-10-21T03:40:15.060Z,16.14
2022-10-21T03:41:17.211Z,16.10
2022-10-21T03:42:19.305Z,16.10
2022-10-21T03:43:21.486Z,16.10
2022-10-21T03:44:23.603Z,16.08
2022-10-21T03:45:26.782Z,16.11
2022-10-21T03:46:28.883Z,16.09
2022-10-21T03:47:30.980Z,16.15
2022-10-21T03:48:33.169Z,16.14
2022-10-21T03:50:42.409Z,16.11
2022-10-21T03:51:44.597Z,16.11
2022-10-21T03:52:46.768Z,16.12
2022-10-21T03:53:48.952Z,16.19
2022-10-21T03:54:51.081Z,16.18
2022-10-21T03:55:56.631Z,16.12
2022-10-21T03:56:59.042Z,15.98
2022-10-21T03:58:01.132Z,15.96
2022-10-21T03:59:03.718Z,16.00
2022-10-21T04:00:06.715Z,16.10
2022-10-21T04:01:14.592Z,16.03
2022-10-21T04:02:16.851Z,16.07
2022-10-21T04:03:18.970Z,16.14
2022-10-21T04:04:21.143Z,16.21
2022-10-21T04:05:23.245Z,16.20
2022-10-21T04:06:25.443Z,16.18
2022-10-21T04:07:27.624Z,16.19
2022-10-21T04:08:29.834Z,16.14
2022-10-21T04:09:31.974Z,16.20
2022-10-21T04:10:34.129Z,16.21
2022-10-21T04:11:36.337Z,16.19
2022-10-21T04:12:38.811Z,16.21
2022-10-21T04:13:41.329Z,16.23
2022-10-21T04:14:43.454Z,16.30
2022-10-21T04:15:45.755Z,16.32
2022-10-21T04:16:48.149Z,16.29
2022-10-21T04:17:50.346Z,16.32
2022-10-21T04:18:52.637Z,16.34
2022-10-21T04:19:54.753Z,16.35
2022-10-21T04:20:56.948Z,16.34
2022-10-21T04:21:59.086Z,16.38
2022-10-21T04:23:01.433Z,16.39
2022-10-21T04:24:03.903Z,16.36
2022-10-21T04:25:06.435Z,16.39
2022-10-21T04:26:08.981Z,16.42
2022-10-21T04:27:11.126Z,16.41
2022-10-21T04:28:13.687Z,16.49
2022-10-21T04:29:15.852Z,16.47
2022-10-21T04:30:18.125Z,16.46
2022-10-21T04:31:20.236Z,16.46
2022-10-21T04:32:22.416Z,16.42
2022-10-21T04:33:24.960Z,16.47
2022-10-21T04:34:27.099Z,16.41
2022-10-21T04:35:29.503Z,16.49
2022-10-21T04:36:32.180Z,16.56
2022-10-21T04:37:34.714Z,16.62
2022-10-21T04:38:36.842Z,16.58
2022-10-21T04:39:38.966Z,16.61
2022-10-21T04:40:41.645Z,16.64
2022-10-21T04:41:45.690Z,16.68
2022-10-21T04:42:49.517Z,16.82
2022-10-21T04:43:51.741Z,16.70
2022-10-21T04:44:53.890Z,16.80
2022-10-21T04:45:56.175Z,16.74
2022-10-21T04:46:58.379Z,16.59
2022-10-21T04:48:00.543Z,16.69
2022-10-21T04:49:02.837Z,16.69
2022-10-21T04:50:05.609Z,16.77
2022-10-21T04:51:07.785Z,16.72
2022-10-21T04:52:09.945Z,16.75
2022-10-21T04:53:12.087Z,16.72
2022-10-21T04:54:14.212Z,16.75
2022-10-21T04:55:16.546Z,16.80
2022-10-21T04:56:18.682Z,16.77
2022-10-21T04:57:20.874Z,16.74
2022-10-21T04:58:23.003Z,16.72
2022-10-21T04:59:25.320Z,16.73
2022-10-21T05:00:27.447Z,16.71
2022-10-21T05:01:29.703Z,16.71
2022-10-21T05:02:31.969Z,16.70
2022-10-21T05:03:34.086Z,16.69
2022-10-21T05:04:36.224Z,16.69
2022-10-21T05:05:38.718Z,16.72
2022-10-21T05:06:40.825Z,16.77
2022-10-21T05:07:42.978Z,16.78
2022-10-21T05:08:45.115Z,16.76
2022-10-21T05:09:47.338Z,16.75
2022-10-21T05:10:49.500Z,16.78
2022-10-21T05:11:51.642Z,16.80
2022-10-21T05:12:53.760Z,16.74
2022-10-21T05:13:56.144Z,16.77
2022-10-21T05:15:00.509Z,16.73
2022-10-21T05:16:03.848Z,16.90
2022-10-21T05:17:06.007Z,16.83
2022-10-21T05:18:08.151Z,16.72
2022-10-21T05:19:11.620Z,16.92
2022-10-21T05:20:14.059Z,16.84
2022-10-21T05:21:16.191Z,16.86
2022-10-21T05:22:18.370Z,16.90
2022-10-21T05:23:20.848Z,16.85
2022-10-21T05:24:22.970Z,16.88
2022-10-21T05:25:25.141Z,16.87
2022-10-21T05:26:28.869Z,16.87
2022-10-21T05:27:31.050Z,16.90
2022-10-21T05:28:33.373Z,16.97
2022-10-21T05:29:35.516Z,16.96
2022-10-21T05:30:37.836Z,16.97
2022-10-21T05:31:39.998Z,16.97
2022-10-21T05:32:42.511Z,16.91
2022-10-21T05:33:44.679Z,17.00
2022-10-21T05:34:46.823Z,17.03
2022-10-21T05:36:01.712Z,17.33
2022-10-21T05:37:03.899Z,16.98
2022-10-21T05:38:06.298Z,16.86
2022-10-21T05:39:11.391Z,16.93
2022-10-21T05:40:13.592Z,16.97
2022-10-21T05:41:16.389Z,16.98
2022-10-21T05:42:18.596Z,16.98
2022-10-21T05:43:20.803Z,16.96
2022-10-21T05:44:23.000Z,17.02
2022-10-21T05:45:25.291Z,17.01
2022-10-21T05:46:27.406Z,17.00
2022-10-21T05:47:29.599Z,16.92
2022-10-21T05:48:31.791Z,16.90
2022-10-21T05:49:33.930Z,16.95
2022-10-21T05:50:36.102Z,16.95
2022-10-21T05:51:38.216Z,16.94
2022-10-21T05:52:41.312Z,16.90
2022-10-21T05:53:43.714Z,16.86
2022-10-21T05:54:45.891Z,16.85
2022-10-21T05:55:58.871Z,17.11
2022-10-21T05:57:02.456Z,16.77
2022-10-21T05:58:04.673Z,16.79
2022-10-21T05:59:09.366Z,16.80
2022-10-21T06:00:12.844Z,16.80
2022-10-21T06:01:15.550Z,16.83
2022-10-21T06:02:17.787Z,16.80
2022-10-21T06:03:20.753Z,16.75
2022-10-21T06:04:22.898Z,16.75
2022-10-21T06:05:25.013Z,16.70
2022-10-21T06:06:27.144Z,16.68
2022-10-21T06:07:29.319Z,16.69
2022-10-21T06:08:33.418Z,16.79
2022-10-21T06:09:35.725Z,16.63
2022-10-21T06:10:37.890Z,16.59
2022-10-21T06:11:40.070Z,16.57
2022-10-21T06:12:42.874Z,16.61
2022-10-21T06:13:45.717Z,16.59
2022-10-21T06:14:47.879Z,16.54
2022-10-21T06:15:51.135Z,16.55
2022-10-21T06:16:53.400Z,16.53
2022-10-21T06:17:55.525Z,16.50
2022-10-21T06:18:57.669Z,16.51
2022-10-21T06:20:01.659Z,16.54
2022-10-21T06:21:04.100Z,16.50
2022-10-21T06:22:07.125Z,16.50
2022-10-21T06:23:09.335Z,16.48
2022-10-21T06:24:11.521Z,16.48
2022-10-21T06:25:13.679Z,16.50
2022-10-21T06:26:17.245Z,16.51
2022-10-21T06:27:20.272Z,16.62
2022-10-21T06:28:22.481Z,16.51
2022-10-21T06:29:25.239Z,16.50
2022-10-21T06:30:27.469Z,16.48
2022-10-21T06:31:29.722Z,16.48
2022-10-21T06:32:32.834Z,16.56
2022-10-21T06:33:36.448Z,16.63
2022-10-21T06:34:39.117Z,16.62
2022-10-21T06:35:41.354Z,16.52
2022-10-21T06:36:43.620Z,16.53
2022-10-21T06:37:47.159Z,16.51
2022-10-21T06:38:49.356Z,16.52
2022-10-21T06:39:51.463Z,16.56
2022-10-21T06:41:00.302Z,16.59
2022-10-21T06:42:02.523Z,16.67
2022-10-21T06:44:30.111Z,16.81
2022-10-21T06:45:32.491Z,16.84
2022-10-21T06:46:34.653Z,16.85
2022-10-21T06:47:37.136Z,16.88
2022-10-21T06:48:40.027Z,16.97
2022-10-21T06:49:42.198Z,17.01
2022-10-21T06:50:44.421Z,17.09
2022-10-21T06:51:46.510Z,17.06
2022-10-21T06:52:50.577Z,17.03
2022-10-21T06:53:58.146Z,17.28
2022-10-21T06:55:00.298Z,17.10
2022-10-21T06:56:14.305Z,17.40
2022-10-21T06:57:16.450Z,17.10
2022-10-21T06:58:18.602Z,17.17
2022-10-21T06:59:20.702Z,17.18
2022-10-21T07:00:22.894Z,17.24
2022-10-21T07:01:34.709Z,17.49
2022-10-21T07:02:43.491Z,17.38
2022-10-21T07:03:46.119Z,17.41
2022-10-21T07:04:49.327Z,17.47
2022-10-21T07:05:58.709Z,17.81
2022-10-21T07:07:00.852Z,17.56
2022-10-21T07:08:03.055Z,17.73
2022-10-21T07:09:07.229Z,18.01
2022-10-21T07:10:09.598Z,18.05
2022-10-21T07:11:13.264Z,18.29
2022-10-21T07:12:15.462Z,18.32
2022-10-21T07:13:18.672Z,18.37
2022-10-21T07:14:23.869Z,18.39
2022-10-21T07:15:26.052Z,18.56
2022-10-21T07:16:31.453Z,18.92
2022-10-21T07:17:33.624Z,18.87
2022-10-21T07:18:39.238Z,19.07
2022-10-21T07:19:44.182Z,19.44
2022-10-21T07:20:46.341Z,19.68
2022-10-21T07:21:48.454Z,20.03
2022-10-21T07:22:50.830Z,20.38
2022-10-21T07:23:56.604Z,20.91
2022-10-21T07:26:09.020Z,21.20
2022-10-21T07:27:11.219Z,21.57
2022-10-21T07:28:13.491Z,21.68
2022-10-21T07:29:15.629Z,21.75
2022-10-21T07:30:17.782Z,21.89
2022-10-21T07:31:21.674Z,22.07
2022-10-21T07:32:23.811Z,22.14
2022-10-21T07:33:26.852Z,22.42
2022-10-21T07:34:28.978Z,22.49
2022-10-21T07:35:31.119Z,22.66
2022-10-21T07:36:36.188Z,23.11
2022-10-21T07:37:38.531Z,23.16
2022-10-21T07:38:43.799Z,23.41
2022-10-21T07:39:46.005Z,23.31
2022-10-21T07:40:48.175Z,23.47
2022-10-21T07:41:56.372Z,23.82
2022-10-21T07:42:58.884Z,23.71
2022-10-21T07:44:01.932Z,23.87
2022-10-21T07:45:04.296Z,23.86
2022-10-21T07:46:07.086Z,23.92
2022-10-21T07:47:09.382Z,24.18
2022-10-21T07:48:11.616Z,24.50
2022-10-21T07:49:14.837Z,24.86
2022-10-21T07:50:16.981Z,25.27
2022-10-21T07:51:22.380Z,25.66
2022-10-21T07:52:27.057Z,26.01
2022-10-21T07:53:29.193Z,25.84
2022-10-21T07:54:31.317Z,26.35
2022-10-21T07:55:33.477Z,26.48
2022-10-21T07:56:41.943Z,27.08
2022-10-21T07:57:44.224Z,27.10
2022-10-21T07:58:47.097Z,27.36
2022-10-21T07:59:49.368Z,27.52
2022-10-21T08:00:51.571Z,27.65
2022-10-21T08:01:53.966Z,27.40
2022-10-21T08:02:56.845Z,28.04
2022-10-21T08:03:59.014Z,27.92
2022-10-21T08:05:01.261Z,27.95
2022-10-21T08:06:04.974Z,28.04
2022-10-21T08:07:10.256Z,27.99
2022-10-21T08:08:15.226Z,28.39
2022-10-21T08:09:17.857Z,28.51
2022-10-21T08:10:20.079Z,27.94
2022-10-21T08:11:27.244Z,26.88
2022-10-21T08:12:29.380Z,26.31
2022-10-21T08:13:31.948Z,26.15
2022-10-21T08:14:34.600Z,25.32
2022-10-21T08:15:36.757Z,25.87
2022-10-21T08:16:39.234Z,25.96
2022-10-21T08:17:41.348Z,25.96
2022-10-21T08:18:43.593Z,25.81
2022-10-21T08:19:46.402Z,25.81
2022-10-21T08:20:49.387Z,26.65
2022-10-21T08:21:51.561Z,26.69
2022-10-21T08:22:53.683Z,27.07
2022-10-21T08:23:55.894Z,27.85
2022-10-21T08:24:58.082Z,28.47
2022-10-21T08:26:01.259Z,28.66
2022-10-21T08:27:06.463Z,29.25
2022-10-21T08:28:08.570Z,29.52
2022-10-21T08:29:10.741Z,29.89
2022-10-21T08:30:15.534Z,30.03
2022-10-21T08:31:20.827Z,30.46
2022-10-21T08:32:22.983Z,30.76
2022-10-21T08:33:25.143Z,31.01
2022-10-21T08:34:27.401Z,31.10
2022-10-21T08:35:30.913Z,31.68
2022-10-21T08:36:33.088Z,31.91
2022-10-21T08:37:35.258Z,32.15
2022-10-21T08:38:37.463Z,31.53
2022-10-21T08:39:39.546Z,31.83
2022-10-21T08:40:46.200Z,31.90
2022-10-21T08:42:08.711Z,32.17
2022-10-21T08:43:20.919Z,31.92
2022-10-21T08:44:23.055Z,30.53
2022-10-21T08:46:00.501Z,31.32
2022-10-21T08:47:11.215Z,31.71
2022-10-21T08:48:18.812Z,30.49
2022-10-21T08:49:23.981Z,29.92
2022-10-21T08:50:36.370Z,30.12
2022-10-21T08:51:44.826Z,29.50
2022-10-21T08:52:51.523Z,29.60
2022-10-21T08:53:58.372Z,28.87
2022-10-21T08:55:03.797Z,28.31
2022-10-21T08:56:15.667Z,27.32
2022-10-21T08:57:21.314Z,26.89
2022-10-21T08:58:24.727Z,26.68
2022-10-21T08:59:27.368Z,26.50
2022-10-21T09:00:46.696Z,26.99
2022-10-21T09:02:03.838Z,26.90
2022-10-21T09:03:31.424Z,26.84
2022-10-21T09:05:00.764Z,27.27
2022-10-21T09:06:27.331Z,26.99
2022-10-21T09:07:55.817Z,27.40
2022-10-21T09:08:57.965Z,26.96
2022-10-21T09:10:26.494Z,26.81
2022-10-21T09:11:33.279Z,27.09
2022-10-21T09:12:51.268Z,27.48
2022-10-21T09:14:11.693Z,27.53
2022-10-21T09:15:24.518Z,28.05
2022-10-21T09:16:45.478Z,28.67
2022-10-21T09:18:04.178Z,28.25
2022-10-21T09:19:18.440Z,28.93
2022-10-21T09:20:53.522Z,28.69
2022-10-21T09:22:34.394Z,30.01
2022-10-21T09:23:43.120Z,29.92
2022-10-21T09:24:57.258Z,29.99
2022-10-21T09:25:59.305Z,30.01
2022-10-21T09:27:05.368Z,29.67
2022-10-21T09:28:13.502Z,29.34
2022-10-21T09:29:34.137Z,29.29
2022-10-21T09:30:36.640Z,29.69
2022-10-21T09:31:39.029Z,30.07
2022-10-21T09:32:43.117Z,30.27
2022-10-21T09:34:24.258Z,30.81
2022-10-21T09:35:35.284Z,31.11
2022-10-21T09:36:38.753Z,31.28
2022-10-21T09:37:49.383Z,31.35
2022-10-21T09:39:00.696Z,30.49
2022-10-21T09:40:19.766Z,31.07
2022-10-21T09:41:27.884Z,31.48
2022-10-21T09:42:46.430Z,31.27
2022-10-21T09:43:50.775Z,31.27
2022-10-21T09:44:53.074Z,31.12
2022-10-21T09:45:55.995Z,30.58
2022-10-21T09:46:58.184Z,30.92
2022-10-21T09:48:14.609Z,30.64
2022-10-21T09:50:06.310Z,30.30
2022-10-21T09:51:33.316Z,29.39
2022-10-21T09:52:37.786Z,28.80
2022-10-21T09:53:50.009Z,28.88
2022-10-21T09:54:55.786Z,29.04
2022-10-21T09:56:23.155Z,29.38
2022-10-21T09:57:58.524Z,29.64
2022-10-21T09:59:07.538Z,30.45
2022-10-21T10:00:12.902Z,30.05
2022-10-21T10:01:22.726Z,30.77
2022-10-21T10:02:33.433Z,30.95
2022-10-21T10:03:36.978Z,31.81
2022-10-21T10:04:39.078Z,30.98
2022-10-21T10:05:47.981Z,31.08
2022-10-21T10:06:50.801Z,31.16
2022-10-21T10:07:52.886Z,31.70
2022-10-21T10:09:06.366Z,32.64
2022-10-21T10:10:32.759Z,32.05
2022-10-21T10:11:48.968Z,32.22
2022-10-21T10:12:58.772Z,32.29
2022-10-21T10:14:23.022Z,32.53
2022-10-21T10:15:33.816Z,32.92
2022-10-21T10:16:36.191Z,33.13
2022-10-21T10:17:39.726Z,33.48
2022-10-21T10:18:43.104Z,34.43
2022-10-21T10:20:05.379Z,34.55
2022-10-21T10:21:15.984Z,34.51
2022-10-21T10:22:18.057Z,34.31
2022-10-21T10:23:20.227Z,34.42
2022-10-21T10:24:23.457Z,33.60
2022-10-21T10:25:32.930Z,32.49
2022-10-21T10:26:38.309Z,33.04
2022-10-21T10:27:49.895Z,33.32
2022-10-21T10:28:56.242Z,32.37
2022-10-21T10:30:00.639Z,33.53
2022-10-21T10:31:03.539Z,33.81
2022-10-21T10:32:14.427Z,32.60
2022-10-21T10:33:20.778Z,31.69
2022-10-21T10:34:37.033Z,32.64
2022-10-21T10:35:46.072Z,32.59
2022-10-21T10:36:50.475Z,32.53
2022-10-21T10:37:53.415Z,32.78
2022-10-21T10:38:58.007Z,32.65
2022-10-21T10:40:02.709Z,33.03
2022-10-21T10:41:15.327Z,32.96
2022-10-21T10:42:24.653Z,32.89
2022-10-21T10:43:30.406Z,32.22
2022-10-21T10:44:41.042Z,32.42
2022-10-21T10:45:47.678Z,32.65
2022-10-21T10:46:57.785Z,31.73
2022-10-21T10:48:06.009Z,32.11
2022-10-21T10:49:13.866Z,32.03
2022-10-21T10:50:37.722Z,31.96
2022-10-21T10:51:42.458Z,30.30
2022-10-21T10:52:44.594Z,30.69
2022-10-21T10:53:59.013Z,30.91
2022-10-21T10:55:27.436Z,31.76
2022-10-21T10:56:35.531Z,31.63
2022-10-21T10:57:45.881Z,31.60
2022-10-21T10:59:32.386Z,32.26
2022-10-21T11:00:42.604Z,32.03
2022-10-21T11:02:07.452Z,32.50
2022-10-21T11:03:18.235Z,32.42
2022-10-21T11:04:30.243Z,32.86
2022-10-21T11:05:51.742Z,30.54
2022-10-21T11:07:00.917Z,30.38
2022-10-21T11:08:17.929Z,29.39
2022-10-21T11:09:22.766Z,30.22
2022-10-21T11:10:37.139Z,30.59
2022-10-21T11:11:44.229Z,30.88
2022-10-21T11:12:46.329Z,30.66
2022-10-21T11:13:48.642Z,31.11
2022-10-21T11:14:54.617Z,31.45
2022-10-21T11:16:21.579Z,30.74
2022-10-21T11:17:38.891Z,30.58
2022-10-21T11:18:56.817Z,30.86
2022-10-21T11:20:07.861Z,30.79
2022-10-21T11:21:34.545Z,30.70
2022-10-21T11:22:53.548Z,31.30
2022-10-21T11:24:16.811Z,31.43
2022-10-21T11:25:44.882Z,31.80
2022-10-21T11:27:05.244Z,31.96
2022-10-21T11:28:31.041Z,32.31
2022-10-21T11:29:58.222Z,32.33
2022-10-21T11:31:09.052Z,30.20
2022-10-21T11:32:29.330Z,30.67
2022-10-21T11:34:09.349Z,30.11
2022-10-21T11:35:37.347Z,29.99
2022-10-21T11:37:02.781Z,29.52
2022-10-21T11:38:28.058Z,31.29
2022-10-21T11:40:08.973Z,31.75
2022-10-21T11:41:22.913Z,31.79
2022-10-21T11:42:41.949Z,32.61
2022-10-21T11:44:07.287Z,33.34
2022-10-21T11:45:12.238Z,32.45
2022-10-21T11:46:32.609Z,32.49
2022-10-21T11:47:42.180Z,32.65
2022-10-21T11:49:08.894Z,32.91
2022-10-21T11:50:44.510Z,33.51
2022-10-21T11:51:52.734Z,33.47
2022-10-21T11:53:15.790Z,33.19
2022-10-21T11:54:59.696Z,32.02
2022-10-21T11:56:24.962Z,32.47
2022-10-21T11:57:47.856Z,31.40
2022-10-21T11:59:10.524Z,30.96
2022-10-21T12:00:22.732Z,30.58
2022-10-21T12:01:47.874Z,29.25
2022-10-21T12:03:24.374Z,30.47
2022-10-21T12:05:01.475Z,30.27
2022-10-21T12:06:21.872Z,30.30
2022-10-21T12:07:48.985Z,30.56
2022-10-21T12:08:54.793Z,30.54
2022-10-21T12:10:23.954Z,30.88
2022-10-21T12:11:34.463Z,29.95
2022-10-21T12:12:41.134Z,29.68
2022-10-21T12:13:52.745Z,30.43
2022-10-21T12:14:57.867Z,30.70
2022-10-21T12:16:05.095Z,30.78
2022-10-21T12:17:12.930Z,29.71
2022-10-21T12:18:21.975Z,29.94
2022-10-21T12:19:26.026Z,29.37
2022-10-21T12:20:28.273Z,29.58
2022-10-21T12:21:35.156Z,29.98
2022-10-21T12:22:38.551Z,30.59
2022-10-21T12:23:41.409Z,30.95
2022-10-21T12:24:58.313Z,31.21
2022-10-21T12:26:35.070Z,30.04
2022-10-21T12:27:43.202Z,30.23
2022-10-21T12:28:51.459Z,30.01
2022-10-21T12:30:07.075Z,29.88
2022-10-21T12:31:21.399Z,29.47
2022-10-21T12:32:35.887Z,28.99
2022-10-21T12:33:41.778Z,28.78
2022-10-21T12:34:44.098Z,28.59
2022-10-21T12:35:46.204Z,28.25
2022-10-21T12:36:50.946Z,27.80
2022-10-21T12:37:53.014Z,27.76
2022-10-21T12:38:59.075Z,28.03
2022-10-21T12:40:13.687Z,28.07
2022-10-21T12:41:24.756Z,27.73
2022-10-21T12:42:28.917Z,27.40
2022-10-21T12:43:31.305Z,26.58
2022-10-21T12:44:33.863Z,26.12
2022-10-21T12:45:38.661Z,26.18
2022-10-21T12:46:45.880Z,25.42
2022-10-21T12:47:48.164Z,25.65
2022-10-21T12:48:52.374Z,26.09
2022-10-21T12:50:19.394Z,26.14
2022-10-21T12:51:28.207Z,25.55
2022-10-21T12:52:30.581Z,25.78
2022-10-21T12:53:48.177Z,26.01
2022-10-21T12:54:58.439Z,26.21
2022-10-21T12:56:01.782Z,25.96
2022-10-21T12:57:08.403Z,25.77
2022-10-21T12:58:19.722Z,25.79
2022-10-21T12:59:37.880Z,26.01
2022-10-21T13:01:00.443Z,25.55
2022-10-21T13:02:29.018Z,25.38
2022-10-21T13:03:46.429Z,26.14
2022-10-21T13:04:55.339Z,26.28
2022-10-21T13:06:05.734Z,26.17
2022-10-21T13:07:16.626Z,25.81
2022-10-21T13:08:25.706Z,25.86
2022-10-21T13:09:33.660Z,26.01
2022-10-21T13:10:35.878Z,25.97
2022-10-21T13:11:39.746Z,25.78
2022-10-21T13:12:42.025Z,25.76
2022-10-21T13:13:49.963Z,25.37
2022-10-21T13:15:19.929Z,24.82
2022-10-21T13:16:22.004Z,24.79
2022-10-21T13:17:32.751Z,25.27
2022-10-21T13:18:53.307Z,25.63
2022-10-21T13:20:14.715Z,24.93
2022-10-21T13:21:24.080Z,25.24
2022-10-21T13:22:35.301Z,24.97
2022-10-21T13:23:40.240Z,24.58
2022-10-21T13:24:42.945Z,24.44
2022-10-21T13:25:45.085Z,24.23
2022-10-21T13:26:52.737Z,24.67
2022-10-21T13:28:03.372Z,24.95
2022-10-21T13:29:12.597Z,24.44
2022-10-21T13:30:33.546Z,24.38
2022-10-21T13:31:36.011Z,24.19
2022-10-21T13:32:38.770Z,24.34
2022-10-21T13:33:52.285Z,24.54
2022-10-21T13:35:12.522Z,24.09
2022-10-21T13:36:14.837Z,23.58
2022-10-21T13:37:33.584Z,23.61
2022-10-21T13:38:45.587Z,23.61
2022-10-21T13:39:49.953Z,23.60
2022-10-21T13:40:56.387Z,23.92
2022-10-21T13:42:02.336Z,23.94
2022-10-21T13:43:14.850Z,24.27
2022-10-21T13:44:28.824Z,24.16
2022-10-21T13:45:36.089Z,24.17
2022-10-21T13:46:43.541Z,24.06
2022-10-21T13:47:59.410Z,24.27
2022-10-21T13:49:02.149Z,23.80
2022-10-21T13:50:09.988Z,23.96
2022-10-21T13:51:22.101Z,23.92
2022-10-21T13:52:28.914Z,24.12
2022-10-21T13:53:37.414Z,24.12
2022-10-21T13:54:40.006Z,23.50
2022-10-21T13:55:42.145Z,23.10
2022-10-21T13:56:44.350Z,23.52
2022-10-21T13:57:48.947Z,23.55
2022-10-21T13:58:51.767Z,23.61
2022-10-21T14:00:09.277Z,24.03
2022-10-21T14:01:20.076Z,23.93
2022-10-21T14:02:27.643Z,23.94
2022-10-21T14:03:29.787Z,23.79
2022-10-21T14:04:39.347Z,23.94
2022-10-21T14:05:58.054Z,24.02
2022-10-21T14:07:04.786Z,23.94
2022-10-21T14:08:21.705Z,24.32
2022-10-21T14:09:27.402Z,24.26
2022-10-21T14:10:30.320Z,24.12
2022-10-21T14:11:43.388Z,24.23
2022-10-21T14:12:47.202Z,24.06
2022-10-21T14:13:51.142Z,24.27
2022-10-21T14:14:56.898Z,24.06
2022-10-21T14:16:00.878Z,24.06
2022-10-21T14:17:08.147Z,24.07
2022-10-21T14:18:28.288Z,23.89
2022-10-21T14:19:35.422Z,23.56
2022-10-21T14:20:38.147Z,23.30
2022-10-21T14:21:44.232Z,23.22
2022-10-21T14:22:51.222Z,23.47
2022-10-21T14:23:53.747Z,23.18
2022-10-21T14:24:58.566Z,23.12
2022-10-21T14:26:07.152Z,23.45
2022-10-21T14:27:14.236Z,23.25
2022-10-21T14:28:18.810Z,22.91
2022-10-21T14:29:28.067Z,23.27
2022-10-21T14:30:33.574Z,23.08
2022-10-21T14:31:36.136Z,23.08
2022-10-21T14:32:38.879Z,23.20
2022-10-21T14:33:45.073Z,23.11
2022-10-21T14:35:03.367Z,23.20
2022-10-21T14:36:07.439Z,22.73